Time;durP1;ratioP1;P1;durP2;ratioP2;P2;SDS_P1;SDS_P2;PMS_P1;PMS_P2;Temp;Humidity;BMP_temperature;BMP_pressure;BME280_temperature;BME280_humidity;BME280_pressure;Samples;Min_cycle;Max_cycle;Signal;HPM_P1;HPM_P2
2021/11/24 08:14:06;;;;;;;24.70;10.67;;;;;;;-2.54;100.00;99743.13;5122986;27;20370;-81
2021/11/24 08:16:34;;;;;;;27.33;12.95;;;;;;;-2.42;100.00;99745.06;5133624;27;20452;-81
2021/11/24 08:19:04;;;;;;;25.73;13.17;;;;;;;-2.29;100.00;99744.34;5130795;28;20051;-81
2021/11/24 08:21:31;;;;;;;41.53;16.90;;;;;;;-2.21;100.00;99740.31;5117771;28;20405;-80
2021/11/24 08:23:58;;;;;;;46.30;19.37;;;;;;;-2.06;100.00;99743.00;5124943;27;20070;-81
2021/11/24 08:26:25;;;;;;;61.10;21.80;;;;;;;-2.02;100.00;99731.22;5130720;28;20052;-81
2021/11/24 08:28:52;;;;;;;41.73;18.30;;;;;;;-1.98;100.00;99727.44;5129230;27;20498;-81
2021/11/24 08:31:20;;;;;;;27.73;14.33;;;;;;;-1.94;100.00;99720.97;5130247;27;20054;-81
2021/11/24 08:33:47;;;;;;;25.20;12.13;;;;;;;-1.83;100.00;99728.31;5113212;28;20048;-81
2021/11/24 08:36:15;;;;;;;24.33;12.10;;;;;;;-1.68;100.00;99738.06;5124172;27;20059;-81
2021/11/24 08:38:42;;;;;;;24.30;11.03;;;;;;;-1.73;100.00;99736.63;5116095;28;20055;-81
2021/11/24 08:41:11;;;;;;;29.70;11.57;;;;;;;-1.84;100.00;99716.78;5128018;28;20152;-80
2021/11/24 08:43:39;;;;;;;26.55;11.82;;;;;;;-1.70;100.00;99739.97;5129573;28;20075;-81
2021/11/24 08:46:06;;;;;;;28.63;13.87;;;;;;;-1.81;100.00;99715.75;5129095;27;20055;-81
2021/11/24 08:48:35;;;;;;;23.80;11.37;;;;;;;-1.72;100.00;99730.34;5116846;28;20063;-81
2021/11/24 08:51:02;;;;;;;26.27;11.47;;;;;;;-1.69;100.00;99736.34;5129004;27;20284;-80
2021/11/24 08:53:29;;;;;;;21.17;10.97;;;;;;;-1.73;100.00;99716.16;5129760;27;20047;-80
2021/11/24 08:55:56;;;;;;;22.93;11.93;;;;;;;-1.64;100.00;99733.38;5129157;27;20148;-80
2021/11/24 08:58:23;;;;;;;26.40;12.17;;;;;;;-1.56;100.00;99736.47;5129144;28;20043;-80
2021/11/24 09:00:51;;;;;;;23.57;12.60;;;;;;;-1.56;100.00;99727.63;5128470;27;20047;-80
2021/11/24 09:03:18;;;;;;;28.83;12.57;;;;;;;-1.44;100.00;99729.53;5125978;28;20055;-80
2021/11/24 09:05:46;;;;;;;23.47;12.73;;;;;;;-1.37;100.00;99736.19;5116515;28;20062;-80
2021/11/24 09:08:13;;;;;;;22.87;12.27;;;;;;;-1.32;100.00;99727.91;5119014;28;20075;-80
2021/11/24 09:10:41;;;;;;;22.27;11.10;;;;;;;-1.37;100.00;99712.19;5129643;27;20047;-80
2021/11/24 09:13:08;;;;;;;20.23;11.37;;;;;;;-1.30;100.00;99720.66;5106035;27;20050;-80
2021/11/24 09:15:35;;;;;;;22.90;11.93;;;;;;;-1.32;100.00;99704.75;5098324;28;20056;-80
2021/11/24 09:18:03;;;;;;;26.23;11.90;;;;;;;-1.17;100.00;99700.25;5089571;28;20119;-80
2021/11/24 09:20:30;;;;;;;27.47;12.03;;;;;;;-0.99;100.00;99721.41;5095105;28;20051;-81
2021/11/24 09:22:58;;;;;;;27.37;12.03;;;;;;;-1.08;100.00;99705.00;5089744;28;20061;-81
2021/11/24 09:25:36;;;;;;;26.43;11.73;;;;;;;-0.91;100.00;99703.91;5084337;28;20052;-81
2021/11/24 09:28:09;;;;;;;18.07;11.93;;;;;;;-0.81;100.00;99703.31;5078892;28;20056;-82
2021/11/24 09:30:37;;;;;;;24.57;11.97;;;;;;;-0.79;100.00;99683.59;5086709;28;20056;-81
2021/11/24 09:33:04;;;;;;;23.27;12.40;;;;;;;-0.62;100.00;99689.63;5096227;28;20093;-81
2021/11/24 09:35:31;;;;;;;31.20;13.53;;;;;;;-0.52;100.00;99695.25;5087081;28;20071;-81
2021/11/24 09:38:00;;;;;;;25.73;12.40;;;;;;;-0.65;100.00;99684.50;5075520;28;20055;-81
2021/11/24 09:40:28;;;;;;;19.58;10.55;;;;;;;-0.54;100.00;99684.66;5075965;28;20052;-81
2021/11/24 09:42:59;;;;;;;22.33;12.17;;;;;;;-0.43;100.00;99674.09;5084732;28;20047;-81
2021/11/24 09:45:27;;;;;;;18.57;11.27;;;;;;;-0.26;100.00;99672.13;5076338;28;20041;-81
2021/11/24 09:47:56;;;;;;;28.10;12.03;;;;;;;-0.42;100.00;99648.25;5081285;28;20052;-81
2021/11/24 09:50:26;;;;;;;20.13;11.10;;;;;;;-0.32;100.00;99656.50;5075770;28;20541;-81
2021/11/24 09:52:55;;;;;;;23.80;13.35;;;;;;;-0.24;100.00;99651.50;5075996;28;20051;-81
2021/11/24 09:55:25;;;;;;;23.98;13.00;;;;;;;-0.14;100.00;99635.69;5095899;28;20048;-81
2021/11/24 09:57:52;;;;;;;;;;;;;;;0.14;100.00;99659.56;5095904;28;20055;-81
2021/11/24 10:00:20;;;;;;;21.17;10.90;;;;;;;0.21;100.00;99652.00;5075611;28;19932;-81
2021/11/24 10:02:48;;;;;;;20.90;11.77;;;;;;;0.22;100.00;99642.97;5093984;28;20151;-81
2021/11/24 10:05:18;;;;;;;23.33;12.13;;;;;;;0.15;100.00;99631.88;5094213;28;20052;-81
2021/11/24 10:07:45;;;;;;;26.35;11.82;;;;;;;0.41;100.00;99639.03;5094507;28;20062;-81
2021/11/24 10:10:12;;;;;;;21.88;11.68;;;;;;;0.40;100.00;99632.81;5088722;28;20043;-81
2021/11/24 10:12:40;;;;;;;25.75;12.75;;;;;;;0.35;100.00;99610.91;5074897;28;20049;-81
2021/11/24 10:15:10;;;;;;;21.98;12.15;;;;;;;0.43;100.00;99605.00;5077078;28;20567;-81
2021/11/24 10:17:37;;;;;;;24.63;13.50;;;;;;;0.53;100.00;99600.69;5094614;28;20395;-81
2021/11/24 10:20:09;;;;;;;20.52;11.20;;;;;;;0.48;100.00;99590.34;5094918;28;20066;-82
2021/11/24 10:22:38;;;;;;;22.80;12.00;;;;;;;0.54;100.00;99594.38;5076983;28;20045;-82
2021/11/24 10:25:07;;;;;;;22.67;12.60;;;;;;;0.68;100.00;99586.22;5075887;28;20045;-82
2021/11/24 10:27:38;;;;;;;21.95;11.32;;;;;;;0.76;100.00;99574.94;5095158;28;20487;-82
2021/11/24 10:30:09;;;;;;;22.23;11.07;;;;;;;0.91;100.00;99569.44;5094024;28;20131;-81
2021/11/24 10:32:37;;;;;;;20.90;12.38;;;;;;;1.06;100.00;99561.09;5057103;28;20041;-82
2021/11/24 10:35:07;;;;;;;22.48;12.45;;;;;;;1.02;100.00;99546.25;5074388;28;20049;-81
2021/11/24 10:37:34;;;;;;;19.95;9.95;;;;;;;1.28;100.00;99569.34;5082860;28;20479;-81
2021/11/24 10:40:04;;;;;;;14.13;7.47;;;;;;;1.39;100.00;99534.59;5094679;28;20135;-81
2021/11/24 10:42:35;;;;;;;13.25;6.90;;;;;;;1.70;100.00;99557.19;5074797;28;20530;-81
2021/11/24 10:45:11;;;;;;;9.32;5.95;;;;;;;1.69;100.00;99543.91;5074792;28;20049;-81
2021/11/24 10:47:50;;;;;;;8.73;5.75;;;;;;;1.93;100.00;99541.16;5074806;28;20097;-81
2021/11/24 10:50:19;;;;;;;9.65;5.82;;;;;;;1.81;100.00;99534.91;5093740;28;20044;-81
2021/11/24 10:52:48;;;;;;;8.40;5.57;;;;;;;1.84;100.00;99539.19;5094766;28;20048;-82
2021/11/24 10:55:27;;;;;;;10.10;5.97;;;;;;;1.80;100.00;99535.88;5089014;28;20423;-81
2021/11/24 10:58:01;;;;;;;9.32;5.60;;;;;;;1.92;100.00;99516.16;5073917;28;20044;-82
2021/11/24 11:00:38;;;;;;;10.52;6.03;;;;;;;1.97;100.00;99518.47;5080939;28;20402;-81
2021/11/24 11:03:06;;;;;;;8.35;5.38;;;;;;;2.04;100.00;99516.16;5094611;28;20514;-81
2021/11/24 11:05:33;;;;;;;17.52;8.10;;;;;;;1.93;100.00;99503.59;5092676;28;20098;-82
2021/11/24 11:08:11;;;;;;;26.20;12.07;;;;;;;1.72;100.00;99500.78;5094343;28;20064;-82
2021/11/24 11:10:42;;;;;;;20.13;11.48;;;;;;;1.63;100.00;99488.13;5092606;28;20055;-81
2021/11/24 11:13:19;;;;;;;20.08;10.43;;;;;;;1.69;100.00;99491.16;5094591;28;20070;-81
2021/11/24 11:15:53;;;;;;;20.95;11.00;;;;;;;1.68;100.00;99483.22;5086309;28;20052;-82
2021/11/24 11:18:25;;;;;;;19.27;11.30;;;;;;;1.92;100.00;99473.25;5073986;28;20066;-81
2021/11/24 11:20:54;;;;;;;19.70;11.27;;;;;;;1.88;100.00;99477.16;5082119;28;20441;-81
2021/11/24 11:23:24;;;;;;;21.55;10.85;;;;;;;1.95;100.00;99474.84;5080940;28;20506;-81
2021/11/24 11:25:53;;;;;;;20.08;10.95;;;;;;;1.91;100.00;99463.50;5078129;28;20057;-81
2021/11/24 11:28:22;;;;;;;15.80;9.50;;;;;;;1.97;100.00;99459.47;5073820;28;20057;-82
2021/11/24 11:30:52;;;;;;;19.13;9.65;;;;;;;1.95;100.00;99456.06;5074340;28;20060;-82
2021/11/24 11:33:21;;;;;;;18.85;10.43;;;;;;;1.88;100.00;99442.31;5073520;28;20051;-81
2021/11/24 11:35:48;;;;;;;16.27;10.20;;;;;;;1.92;100.00;99437.53;5074636;28;20048;-82
2021/11/24 11:38:17;;;;;;;16.75;10.80;;;;;;;2.11;100.00;99459.22;5071870;28;20052;-82
2021/11/24 11:40:45;;;;;;;23.38;10.20;;;;;;;2.25;100.00;99460.78;5081686;28;20475;-82
2021/11/24 11:43:12;;;;;;;16.13;9.73;;;;;;;2.12;100.00;99427.88;5092288;28;20135;-82
2021/11/24 11:45:40;;;;;;;20.23;9.95;;;;;;;2.28;100.00;99430.19;5088552;28;20053;-82
2021/11/24 11:48:09;;;;;;;19.70;10.82;;;;;;;2.35;100.00;99436.75;5090950;28;20559;-82
2021/11/24 11:50:52;;;;;;;20.60;10.73;;;;;;;2.36;100.00;99425.03;5092640;28;20071;-82
2021/11/24 11:53:30;;;;;;;19.92;11.05;;;;;;;2.47;100.00;99425.00;5073906;28;20132;-82
2021/11/24 11:56:18;;;;;;;20.67;10.65;;;;;;;2.45;100.00;99407.31;5073617;28;20067;-82
2021/11/24 11:58:58;;;;;;;20.63;10.30;;;;;;;2.63;100.00;99410.31;5089203;28;20048;-82
2021/11/24 12:01:28;;;;;;;17.13;9.98;;;;;;;2.61;100.00;99398.84;5084546;28;20045;-82
2021/11/24 12:04:04;;;;;;;23.60;11.20;;;;;;;2.65;100.00;99401.16;5091051;28;20048;-82
2021/11/24 12:06:32;;;;;;;22.38;11.52;;;;;;;2.62;100.00;99397.84;5084006;28;20139;-81
2021/11/24 12:09:25;;;;;;;29.30;12.38;;;;;;;2.63;100.00;99381.66;5076456;28;20487;-82
2021/11/24 12:12:13;;;;;;;21.20;11.07;;;;;;;2.73;100.00;99392.44;5085468;28;20048;-81
2021/11/24 12:15:03;;;;;;;20.00;10.93;;;;;;;2.73;100.00;99395.13;5093336;28;20044;-82
2021/11/24 12:17:55;;;;;;;18.77;11.13;;;;;;;2.72;100.00;99360.34;5072365;28;20052;-82
2021/11/24 12:20:45;;;;;;;23.45;11.80;;;;;;;2.80;100.00;99365.91;5073494;28;20053;-82
2021/11/24 12:23:18;;;;;;;16.27;9.70;;;;;;;2.78;100.00;99368.72;5073410;28;20484;-83
2021/11/24 12:25:47;;;;;;;18.00;9.75;;;;;;;2.90;100.00;99363.31;5088936;28;20056;-82
2021/11/24 12:28:16;;;;;;;22.65;10.95;;;;;;;2.99;100.00;99351.78;5093248;28;20067;-82
2021/11/24 12:31:04;;;;;;;16.57;9.87;;;;;;;3.03;100.00;99361.28;5092720;28;20491;-82
2021/11/24 12:33:33;;;;;;;17.83;9.77;;;;;;;3.09;100.00;99359.91;5074352;28;20048;-82
2021/11/24 12:36:07;;;;;;;15.27;9.35;;;;;;;3.03;100.00;99336.25;5091378;28;20130;-83
2021/11/24 12:38:37;;;;;;;17.95;10.30;;;;;;;3.16;99.97;99348.50;5093084;28;20058;-82
2021/11/24 12:41:07;;;;;;;20.60;10.23;;;;;;;3.12;99.95;99340.84;5075377;28;20067;-82
2021/11/24 12:43:36;;;;;;;17.67;9.05;;;;;;;3.11;100.00;99326.53;5086800;28;20062;-82
2021/11/24 12:46:12;;;;;;;21.23;9.85;;;;;;;3.15;100.00;99325.28;5091765;28;20384;-82
2021/11/24 12:48:46;;;;;;;14.63;8.07;;;;;;;3.14;98.32;99328.13;5092527;28;20055;-82
2021/11/24 12:51:22;;;;;;;15.10;8.45;;;;;;;3.14;97.87;99320.06;5074351;28;20510;-82
2021/11/24 12:53:55;;;;;;;15.60;8.98;;;;;;;3.12;97.97;99308.59;5072835;28;20499;-82
2021/11/24 12:56:24;;;;;;;19.67;9.65;;;;;;;3.27;98.24;99309.09;5092755;28;20109;-82
2021/11/24 12:58:52;;;;;;;13.30;7.63;;;;;;;3.36;95.98;99302.91;5093685;28;20051;-82
2021/11/24 13:01:23;;;;;;;11.48;7.13;;;;;;;3.45;96.37;99310.16;5077357;28;20049;-82
2021/11/24 13:04:00;;;;;;;6.93;4.75;;;;;;;3.52;91.03;99302.38;5076712;28;20044;-82
2021/11/24 13:06:49;;;;;;;5.13;3.65;;;;;;;3.79;87.16;99301.75;5089137;28;20040;-82
2021/11/24 13:09:18;;;;;;;5.32;3.58;;;;;;;3.95;85.01;99295.00;5095623;28;20422;-82
2021/11/24 13:11:56;;;;;;;5.57;3.63;;;;;;;4.02;83.66;99296.13;5096457;28;20047;-82
2021/11/24 13:14:30;;;;;;;5.90;4.35;;;;;;;3.97;84.78;99280.41;5094335;28;20048;-82
2021/11/24 13:17:10;;;;;;;6.18;3.83;;;;;;;4.00;81.05;99274.75;5076568;28;20044;-82
2021/11/24 13:19:39;;;;;;;8.02;3.92;;;;;;;3.99;81.71;99273.06;5077050;28;20055;-82
2021/11/24 13:22:09;;;;;;;8.65;4.53;;;;;;;4.15;81.53;99274.34;5078428;28;20040;-82
2021/11/24 13:24:36;;;;;;;5.68;3.85;;;;;;;4.11;81.71;99279.16;5093367;28;20056;-82
2021/11/24 13:27:04;;;;;;;5.95;3.80;;;;;;;4.13;82.87;99285.25;5076085;28;20105;-82
2021/11/24 13:29:34;;;;;;;6.07;4.05;;;;;;;3.92;81.43;99257.63;5076398;28;20052;-82
2021/11/24 13:32:09;;;;;;;8.50;4.28;;;;;;;4.01;81.20;99263.00;5075873;28;20097;-82
2021/11/24 13:34:36;;;;;;;5.85;4.15;;;;;;;3.93;81.17;99245.88;5077758;28;20048;-82
2021/11/24 13:37:04;;;;;;;9.05;4.35;;;;;;;4.00;82.14;99266.69;5096200;28;20402;-82
2021/11/24 13:39:34;;;;;;;8.75;4.10;;;;;;;4.00;82.52;99255.06;5092819;28;20406;-82
2021/11/24 13:42:14;;;;;;;7.75;4.50;;;;;;;4.13;80.44;99250.28;5095790;28;20044;-82
2021/11/24 13:44:54;;;;;;;;;;;;;;;4.21;81.79;99257.63;5094296;28;20055;-82
2021/11/24 13:47:24;;;;;;;;;;;;;;;4.21;80.96;99250.41;5076021;28;19920;-82
2021/11/24 13:49:51;;;;;;;8.40;4.38;;;;;;;3.98;82.72;99232.84;5077652;28;19981;-82
2021/11/24 13:52:23;;;;;;;9.88;4.55;;;;;;;3.90;82.73;99222.81;5096286;28;20407;-82
2021/11/24 13:54:54;;;;;;;6.90;4.63;;;;;;;3.98;83.14;99230.16;5092998;28;20437;-82
2021/11/24 13:57:22;;;;;;;11.23;4.32;;;;;;;4.02;82.97;99223.50;5092536;28;20051;-82
2021/11/24 13:59:59;;;;;;;5.93;3.92;;;;;;;3.99;83.75;99221.09;5074676;28;20053;-82
2021/11/24 14:02:27;;;;;;;8.73;4.68;;;;;;;3.90;83.95;99217.44;5079039;28;20098;-82
2021/11/24 14:05:16;;;;;;;7.55;3.92;;;;;;;3.95;83.69;99227.75;5095356;28;20395;-85
2021/11/24 14:07:49;;;;;;;7.78;4.50;;;;;;;3.92;82.91;99211.91;5088747;28;20052;-83
2021/11/24 14:10:21;;;;;;;8.98;4.35;;;;;;;3.87;84.11;99204.25;5095622;28;20055;-83
2021/11/24 14:12:49;;;;;;;6.55;3.95;;;;;;;4.05;83.84;99233.97;5093570;28;20062;-83
2021/11/24 14:15:30;;;;;;;8.07;4.60;;;;;;;3.93;84.95;99221.66;5094878;28;20070;-83
2021/11/24 14:18:02;;;;;;;5.20;4.15;;;;;;;3.82;84.37;99206.50;5095128;28;20044;-83
2021/11/24 14:20:34;;;;;;;5.45;3.67;;;;;;;3.93;83.68;99205.50;5095256;28;20083;-83
2021/11/24 14:23:07;;;;;;;7.38;4.18;;;;;;;3.98;84.07;99214.03;5095543;28;20139;-84
2021/11/24 14:25:38;;;;;;;6.80;3.70;;;;;;;3.95;84.44;99207.09;5096029;28;20131;-83
2021/11/24 14:28:07;;;;;;;5.88;3.92;;;;;;;3.74;85.56;99182.19;5094999;28;20071;-84
2021/11/24 14:30:35;;;;;;;9.13;4.90;;;;;;;3.67;86.86;99200.69;5075073;28;20067;-84
2021/11/24 14:33:05;;;;;;;8.18;5.03;;;;;;;3.63;85.76;99201.94;5090424;28;20550;-84
2021/11/24 14:35:38;;;;;;;11.85;6.05;;;;;;;3.57;85.76;99211.44;5085743;28;20142;-83
2021/11/24 14:38:11;;;;;;;17.15;9.40;;;;;;;3.45;88.38;99202.66;5076434;28;20052;-83
2021/11/24 14:40:46;;;;;;;18.52;9.73;;;;;;;3.13;91.10;99203.69;5095377;28;20093;-84
2021/11/24 14:43:14;;;;;;;19.80;10.23;;;;;;;2.97;92.86;99211.41;5090474;28;20052;-84
2021/11/24 14:45:42;;;;;;;21.45;11.27;;;;;;;2.83;92.07;99192.00;5088356;28;20052;-84
2021/11/24 14:48:14;;;;;;;22.17;10.35;;;;;;;2.71;92.83;99202.94;5094802;28;20048;-83
2021/11/24 14:50:50;;;;;;;22.50;11.50;;;;;;;2.68;92.49;99222.88;5095559;28;20052;-84
2021/11/24 14:53:17;;;;;;;20.52;11.90;;;;;;;2.32;94.13;99202.72;5094841;28;20055;-84
2021/11/24 14:55:47;;;;;;;28.63;12.43;;;;;;;2.22;95.29;99219.59;5094707;28;20051;-84
2021/11/24 14:58:29;;;;;;;20.95;11.50;;;;;;;2.12;95.74;99211.50;5094137;28;20071;-82
2021/11/24 15:01:02;;;;;;;24.70;12.57;;;;;;;2.09;96.28;99211.75;5087426;28;20101;-85
2021/11/24 15:03:42;;;;;;;21.00;12.10;;;;;;;1.89;97.18;99205.38;5093654;28;20059;-83
2021/11/24 15:06:27;;;;;;;;;;;;;;;1.92;97.51;99223.88;5074781;28;20045;-84
2021/11/24 15:09:24;;;;;;;20.90;11.40;;;;;;;1.71;97.77;99207.75;5092172;28;19935;-83
2021/11/24 15:15:09;;;;;;;19.48;11.15;;;;;;;1.37;98.21;99207.88;5090003;28;20051;-84
2021/11/24 15:17:50;;;;;;;21.42;11.77;;;;;;;1.23;98.52;99186.69;5086389;28;20044;-83
2021/11/24 15:20:43;;;;;;;23.02;11.70;;;;;;;1.26;99.04;99204.38;5092820;28;20048;-83
2021/11/24 15:23:33;;;;;;;22.90;11.60;;;;;;;1.05;99.64;99205.97;5091278;28;20040;-84
2021/11/24 15:30:20;;;;;;;;;;;;;;;;;;;;;
2021/11/24 15:32:49;;;;;;;17.52;9.68;;;;;;;0.76;99.69;99204.78;5090626;28;20052;-83
2021/11/24 15:35:34;;;;;;;22.42;10.18;;;;;;;0.53;100.00;99200.25;5077398;28;20074;-83
2021/11/24 15:38:01;;;;;;;19.77;10.13;;;;;;;0.47;100.00;99216.78;5091989;28;20640;-84
2021/11/24 15:43:29;;;;;;;19.02;9.30;;;;;;;0.35;100.00;99207.03;5090383;28;20075;-84
2021/11/24 15:46:35;;;;;;;19.25;9.63;;;;;;;0.10;100.00;99187.53;5084158;28;20054;-84
2021/11/24 15:52:14;;;;;;;20.02;9.50;;;;;;;-0.08;100.00;99204.97;5079585;28;20446;-84
2021/11/24 15:54:43;;;;;;;17.13;7.85;;;;;;;-0.28;100.00;99193.97;5092822;28;20094;-84
2021/11/24 15:57:19;;;;;;;19.80;9.57;;;;;;;-0.27;100.00;99216.19;5094082;28;20052;-83
2021/11/24 16:00:00;;;;;;;23.63;10.18;;;;;;;-0.41;100.00;99188.69;5080393;28;20052;-84
2021/11/24 16:02:49;;;;;;;15.60;8.30;;;;;;;-0.46;100.00;99192.69;5084951;28;20040;-84
2021/11/24 16:05:23;;;;;;;20.45;10.30;;;;;;;-0.52;100.00;99187.78;5093609;28;20051;-84
2021/11/24 16:07:50;;;;;;;21.57;8.93;;;;;;;-0.42;100.00;99204.81;5091825;28;20059;-84
2021/11/24 16:13:29;;;;;;;21.60;9.70;;;;;;;-0.66;100.00;99194.13;5097360;28;20079;-86
2021/11/24 16:16:00;;;;;;;21.98;10.32;;;;;;;-0.56;100.00;99212.06;5095747;28;20106;-85
2021/11/24 16:18:28;;;;;;;18.47;8.53;;;;;;;-0.62;100.00;99196.47;5105929;28;20075;-85
2021/11/24 16:21:05;;;;;;;22.23;10.77;;;;;;;-0.51;100.00;99209.03;5109436;28;20144;-85
2021/11/24 16:23:32;;;;;;;26.87;10.83;;;;;;;-0.52;100.00;99206.50;5096260;28;20048;-85
2021/11/24 16:26:00;;;;;;;20.30;8.73;;;;;;;-0.58;100.00;99189.94;5085417;28;20044;-85
2021/11/24 16:28:27;;;;;;;15.93;6.67;;;;;;;-0.57;100.00;99196.16;5093373;28;20047;-85
2021/11/24 16:31:03;;;;;;;24.27;9.87;;;;;;;-0.54;100.00;99214.63;5093790;28;20046;-85
2021/11/24 16:33:33;;;;;;;19.90;8.63;;;;;;;-0.63;100.00;99189.44;5094299;28;20044;-85
2021/11/24 16:36:07;;;;;;;19.27;8.70;;;;;;;-0.55;100.00;99205.72;5097670;28;20044;-85
2021/11/24 16:38:41;;;;;;;22.43;9.23;;;;;;;-0.63;100.00;99199.25;5077277;28;20062;-85
2021/11/24 16:41:18;;;;;;;22.23;9.83;;;;;;;-0.55;100.00;99207.56;5078154;28;20044;-85
2021/11/24 16:43:55;;;;;;;19.80;10.37;;;;;;;-0.49;100.00;99199.09;5082097;28;20140;-85
2021/11/24 16:46:37;;;;;;;16.30;8.17;;;;;;;-0.51;100.00;99198.38;5097246;28;20055;-84
2021/11/24 16:49:09;;;;;;;23.87;9.70;;;;;;;-0.57;100.00;99196.16;5094189;28;20051;-85
2021/11/24 16:51:51;;;;;;;21.83;9.70;;;;;;;-0.55;100.00;99180.84;5098065;28;20075;-85
2021/11/24 16:54:24;;;;;;;19.97;9.53;;;;;;;-0.50;100.00;99185.84;5088747;28;20049;-85
2021/11/24 16:56:56;;;;;;;24.67;10.53;;;;;;;-0.45;100.00;99173.88;5077566;28;20143;-85
2021/11/24 16:59:30;;;;;;;20.07;10.13;;;;;;;-0.45;100.00;99168.53;5077728;28;20127;-86
2021/11/24 17:02:06;;;;;;;21.93;9.83;;;;;;;-0.40;100.00;99184.19;5079893;28;20130;-85
2021/11/24 17:04:58;;;;;;;21.57;10.90;;;;;;;-0.44;100.00;99169.38;5089636;28;20058;-85
2021/11/24 17:07:42;;;;;;;;;;;;;;;;;;;;;
2021/11/24 17:10:11;;;;;;;23.00;10.33;;;;;;;-0.37;100.00;99181.31;5081368;28;20044;-84
2021/11/24 17:12:39;;;;;;;21.30;10.30;;;;;;;-0.41;100.00;99169.97;5088533;28;20044;-84
2021/11/24 17:15:12;;;;;;;19.37;8.80;;;;;;;-0.37;100.00;99178.63;5076762;28;20058;-84
2021/11/24 17:17:56;;;;;;;25.73;10.57;;;;;;;-0.43;100.00;99166.56;5084171;28;20048;-84
2021/11/24 17:20:53;;;;;;;;;;;;;;;;;;;;;
2021/11/24 17:23:43;;;;;;;13.93;6.83;;;;;;;-0.43;100.00;99165.75;5094148;28;20074;-85
2021/11/24 17:26:30;;;;;;;;;;;;;;;;;;;;;
2021/11/24 17:29:05;;;;;;;23.03;10.20;;;;;;;-0.55;100.00;99133.63;5094439;28;20047;-85
2021/11/24 17:31:34;;;;;;;22.53;10.20;;;;;;;-0.45;100.00;99119.56;5097155;28;20523;-84
2021/11/24 17:34:04;;;;;;;21.90;10.02;;;;;;;-0.35;100.00;99128.59;5076953;28;20094;-85
2021/11/24 17:36:42;;;;;;;23.77;10.43;;;;;;;-0.36;100.00;99143.78;5076813;28;20136;-86
2021/11/24 17:39:40;;;;;;;22.17;10.73;;;;;;;-0.42;100.00;99106.84;5094101;28;20051;-85
2021/11/24 17:42:28;;;;;;;21.87;9.13;;;;;;;-0.50;100.00;99127.09;5049105;28;20055;-85
2021/11/24 17:45:02;;;;;;;21.20;9.90;;;;;;;-0.54;100.00;99111.31;5091917;28;20122;-85
2021/11/24 17:47:32;;;;;;;21.97;10.50;;;;;;;-0.45;100.00;99107.09;5085364;28;20079;-84
2021/11/24 17:50:18;;;;;;;19.77;8.97;;;;;;;-0.42;100.00;99108.66;5076222;28;20469;-85
2021/11/24 17:52:59;;;;;;;23.00;9.90;;;;;;;-0.48;100.00;99101.97;5071596;28;20062;-85
2021/11/24 17:56:01;;;;;;;20.70;9.53;;;;;;;-0.47;100.00;99089.47;5095866;28;20062;-85
2021/11/24 17:58:34;;;;;;;21.77;9.43;;;;;;;-0.35;100.00;99096.53;5095784;28;20063;-85
2021/11/24 18:01:05;;;;;;;25.97;10.67;;;;;;;-0.42;100.00;99093.50;5090514;28;20097;-85
2021/11/24 18:03:39;;;;;;;22.57;10.00;;;;;;;-0.52;100.00;99075.63;5096189;28;20044;-84
2021/11/24 18:06:46;;;;;;;;;;;;;;;;;;;;;
2021/11/24 18:12:18;;;;;;;21.50;10.00;;;;;;;-0.37;100.00;99077.97;5094052;28;20051;-85
2021/11/24 18:14:51;;;;;;;20.50;9.68;;;;;;;-0.38;100.00;99068.28;5089323;28;20060;-85
2021/11/24 18:17:33;;;;;;;19.53;11.30;;;;;;;-0.34;100.00;99068.88;5075501;28;20063;-85
2021/11/24 18:20:12;;;;;;;28.13;11.83;;;;;;;-0.46;100.00;99051.97;5082022;28;20052;-85
2021/11/24 18:22:50;;;;;;;27.57;10.43;;;;;;;-0.50;100.00;99047.81;5095363;28;20132;-85
2021/11/24 18:25:27;;;;;;;19.23;8.77;;;;;;;-0.48;100.00;99051.25;5095760;28;20044;-85
